Hit Tracker is now ESPN Home Run Tracker! Hit Tracker founder Greg Rybarczyk is now collaborating with the ESPN Stats & Information Group to continue tracking all MLB home runs, and helping baseball fans know "How Far It Really Went!™" Please credit any information on this site to ESPN Stats & Information Group. For more information and analysis on home runs, please contact founder Greg Rybarczyk. E-Mail ESPN Home Run Tracker
Main Page | Ballparks | Park Overlays | Glossary | Highlight Homers | Feedback | Bio | 3 Types of HR's | AAA Home Run Derby Last Updated: May 29, 2016, 9:56 pm PST
If you want to know "How Far It Really Went!", then you've come to the right place! Welcome to the ESPN Home Run Tracker, where you can find accurate, transparently verifiable distances for every home run hit in MLB games. Please also check out the ESPN MLB Scoreboard throughout the 2016 season! Contact us at grybar@hittrackeronline.com.
Season:
Ballpark detail for Rogers Centre
Ballpark # of Home Runs HR per game Avg.
True
Distance
Avg.
Speed
Off
Bat
Avg.
Std.
Dist.
Rogers Centre 58 2.32 400.9 104.4 400.3

Scatter Plot of Home Runs Rogers Centre
 Overlay Ballpark:
Without range rings   With range rings

2016 Season Home Runs for Rogers Centre
Click headers to sort
Date Video Path Hitter Hitter
Team
Pitcher Pitcher
Team
INN Ballpark Type/
Luck
 ^
True
Dist.
Speed
Off
Bat
Elev.
Angle
Horiz.
Angle
Apex Impact Due To: Std.
Dist.
#
Parks
Wind Temp. Alt.
04/08/16 Video View Holt, Brock BOS Chavez, Jesse TOR 6 Rogers Centr... JE 347 103.1 23.4 54.3 52 0 0 0 347 14
04/22/16 Video View Coghlan, Chris OAK Sanchez, Aaron TOR 2 Rogers Centr... JE 398 101.5 27.2 102.4 85 0 0 1 398 28
04/23/16 Video View Canha, Mark OAK Happ, J.A. TOR 1 Rogers Centr... JE 374 97.9 29.6 72.3 87 0 0 1 374 21
04/23/16 Video View Donaldson, Josh TOR Bassitt, Chris OAK 2 Rogers Centr... JE 413 101.8 27.1 89.6 93 0 0 0 413 21
04/23/16 Video View Tulowitzki, Troy TOR Hendriks, Liam OAK 7 Rogers Centr... JE 420 105.7 22.9 85.8 74 0 0 0 419 23
04/24/16 Video View Davis, Khris OAK Hutchison, Drew TOR 2 Rogers Centr... JE 418 103.6 26.5 83.6 91 0 0 0 418 26
04/26/16 Video View Navarro, Dioner CHW Dickey, R.A. TOR 7 Rogers Centr... JE 357 96.6 29.4 65.1 77 0 0 0 356 15
05/02/16 Video View Nicholas, Brett TEX Dickey, R.A. TOR 3 Rogers Centr... JE 411 101.4 31.1 88.9 116 0 0 1 410 22
05/02/16 Video View Mazara, Nomar TEX Floyd, Gavin TOR 8 Rogers Centr... JE 417 103.7 24.4 91.8 81 0 0 0 417 21
05/03/16 Video View Smoak, Justin TOR Tolleson, Shawn TEX 9 Rogers Centr... JE 399 100.4 30.6 100.5 105 0 0 1 398 26
05/06/16 Video View Pillar, Kevin TOR Blanton, Joe LAD 8 Rogers Centr... JE 390 112.0 20.6 110.6 53 0 0 1 390 29
05/16/16 Video View Beckham, Tim TB Happ, J.A. TOR 2 Rogers Centr... JE 410 101.2 27.5 86.3 94 0 0 1 409 14
05/16/16 Video View Casali, Curt TB Antolin, Dustin TOR 3 Rogers Centr... JE 341 94.5 31.1 122.0 77 0 0 0 341 7
05/17/16 Video View Bautista, Jose TOR Archer, Chris TB 1 Rogers Centr... JE 416 102.9 25.4 90.4 86 0 0 0 416 22
05/27/16 Video View Donaldson, Josh TOR Kelly, Joe BOS 1 Rogers Centr... JE 400 102.6 25.9 77.6 80 0 0 0 400 26
05/28/16 Video View Bogaerts, Xander BOS Stroman, Marcus TOR 4 Rogers Centr... JE 401 104.5 23.3 100.2 69 0 0 0 401 21
04/14/16 Video View Tulowitzki, Troy TOR Eovaldi, Nathan NYY 6 Rogers Centr... ND 407 111.7 25.4 124.3 71 0 0 1 407 30
04/10/16 Video View Donaldson, Josh TOR Ramirez, Noe BOS 8 Rogers Centr... ND 444 111.3 26.0 104.8 93 0 0 1 444 30
04/22/16 Video View Barney, Darwin TOR Gray, Sonny OAK 3 Rogers Centr... ND 403 105.7 29.6 116.3 94 0 0 1 402 30
04/26/16 Video View Encarnacion, Edwin TOR Sale, Chris CHW 7 Rogers Centr... ND 451 108.9 25.4 92.8 97 0 0 0 451 30
05/04/16 Video View Encarnacion, Edwin TOR Lewis, Colby TEX 6 Rogers Centr... ND 386 105.1 35.9 117.0 131 0 0 1 385 30
05/06/16 Video View Bautista, Jose TOR Maeda, Kenta LAD 6 Rogers Centr... ND 454 114.4 25.1 106.6 90 0 0 1 453 30
05/07/16 Video View Turner, Justin LAD Girodo, Chad TOR 8 Rogers Centr... ND 389 105.0 35.4 115.6 130 0 -1 1 388 30
05/16/16 Video View Jennings, Desmond TB Chavez, Jesse TOR 9 Rogers Centr... ND 407 106.1 32.7 113.1 118 0 -1 1 406 30
05/18/16 Video View Jennings, Desmond TB Dickey, R.A. TOR 4 Rogers Centr... ND 397 111.7 23.0 119.6 61 0 0 1 396 30
05/18/16 Video View Saunders, Michael TOR Odorizzi, Jake TB 5 Rogers Centr... ND 415 108.9 26.0 67.3 80 0 0 1 414 30
05/18/16 Video View Kiermaier, Kevin TB Dickey, R.A. TOR 6 Rogers Centr... ND 411 106.3 31.2 67.6 110 0 0 1 411 30
05/27/16 Video View Smoak, Justin TOR Kelly, Joe BOS 5 Rogers Centr... ND 423 108.3 29.8 67.1 104 1 -1 1 421 30
05/28/16 Video View Ortiz, David BOS Floyd, Gavin TOR 9 Rogers Centr... ND 400 106.2 26.6 64.9 77 0 1 0 398 30
05/29/16 Video View Encarnacion, Edwin TOR Hembree, Heath BOS 8 Rogers Centr... ND 423 117.8 22.9 123.4 64 0 0 0 422 30
04/12/16 Video View McCann, Brian NYY Sanchez, Aaron TOR 6 Rogers Centr... PL 411 108.0 24.2 72.8 73 0 0 0 410 30
04/13/16 Video View Teixeira, Mark NYY Storen, Drew TOR 8 Rogers Centr... PL 357 99.0 29.0 55.5 73 0 0 0 356 29
04/14/16 Video View Donaldson, Josh TOR Eovaldi, Nathan NYY 5 Rogers Centr... PL 445 107.8 25.3 92.1 95 0 0 0 444 30
04/08/16 Video View Donaldson, Josh TOR Kelly, Joe BOS 4 Rogers Centr... PL 387 105.1 26.6 118.1 73 0 0 1 387 30
04/09/16 Video View Bautista, Jose TOR Porcello, Rick BOS 1 Rogers Centr... PL 366 100.2 27.1 116.0 70 0 0 1 366 23
04/09/16 Video View Bautista, Jose TOR Porcello, Rick BOS 3 Rogers Centr... PL 418 107.2 24.8 103.8 79 0 0 0 418 30
04/23/16 Video View Tulowitzki, Troy TOR Bassitt, Chris OAK 5 Rogers Centr... PL 422 103.7 29.1 96.7 107 0 0 1 421 29
04/24/16 Video View Carrera, Ezequiel TOR Surkamp, Eric OAK 3 Rogers Centr... PL 419 103.1 28.7 83.5 104 0 -1 0 418 27
04/24/16 Video View Bautista, Jose TOR Surkamp, Eric OAK 4 Rogers Centr... PL 400 107.6 22.8 106.2 64 0 0 0 399 30
04/24/16 Video View Reddick, Josh OAK Hutchison, Drew TOR 6 Rogers Centr... PL 409 110.7 21.5 75.2 61 0 0 0 409 29
04/24/16 Video View Coghlan, Chris OAK Chavez, Jesse TOR 7 Rogers Centr... PL 363 101.5 37.7 65.0 135 0 0 2 362 29
04/25/16 Video View Saunders, Michael TOR Gonzalez, Miguel CHW 3 Rogers Centr... PL 426 104.5 26.4 94.3 94 0 -1 0 426 28
04/26/16 Video View Garcia, Avisail CHW Dickey, R.A. TOR 3 Rogers Centr... PL 449 112.4 21.4 95.0 75 0 0 0 449 30
04/26/16 Video View Eaton, Adam CHW Storen, Drew TOR 9 Rogers Centr... PL 426 106.2 25.2 81.5 86 0 0 0 426 30
05/03/16 Video View Odor, Rougned TEX Estrada, Marco TOR 1 Rogers Centr... PL 348 95.3 35.2 61.9 102 0 0 1 347 21
05/03/16 Video View Smoak, Justin TOR Klein, Phil TEX 10 Rogers Centr... PL 365 98.5 29.8 116.7 82 0 0 0 365 24
05/05/16 Video View Encarnacion, Edwin TOR Holland, Derek TEX 3 Rogers Centr... PL 418 104.6 31.4 101.7 120 0 0 1 417 30
05/07/16 Video View Pederson, Joc LAD Dickey, R.A. TOR 2 Rogers Centr... PL 449 108.5 25.0 90.5 95 0 0 1 448 30
05/08/16 Video View Pederson, Joc LAD Estrada, Marco TOR 7 Rogers Centr... PL 397 101.9 32.7 75.0 118 0 -1 1 397 30
05/16/16 Video View Pearce, Steve TB Happ, J.A. TOR 1 Rogers Centr... PL 389 101.4 28.5 109.0 86 0 0 1 389 30
05/17/16 Video View Motter, Taylor TB Storen, Drew TOR 9 Rogers Centr... PL 378 98.8 29.9 109.2 90 0 0 1 378 26
05/18/16 Video View Paredes, Jimmy TOR Odorizzi, Jake TB 2 Rogers Centr... PL 377 100.7 27.2 111.9 75 0 0 0 377 26
05/18/16 Video View Morrison, Logan TB Dickey, R.A. TOR 4 Rogers Centr... PL 444 110.0 23.7 82.9 85 0 0 1 444 30
05/18/16 Video View Encarnacion, Edwin TOR Ramirez, Erasmo TB 8 Rogers Centr... PL 437 106.3 27.6 95.1 105 0 -1 0 437 30
05/27/16 Video View Donaldson, Josh TOR Uehara, Koji BOS 8 Rogers Centr... PL 341 94.7 36.7 61.8 108 0 -1 1 341 17
05/28/16 Video View Shaw, Travis BOS Stroman, Marcus TOR 6 Rogers Centr... PL 372 99.4 35.1 68.2 118 -2 2 1 371 28
05/28/16 Video View Martin, Russell TOR Porcello, Rick BOS 6 Rogers Centr... PL 356 97.7 28.9 60.4 73 0 1 0 355 21
05/29/16 Video View Bautista, Jose TOR Price, David BOS 5 Rogers Centr... PL 360 98.4 36.4 120.6 113 1 3 1 355 29


About HitTracker | Contact Us
© 2006-2016 HitTrackerOnline